Time;durP1;ratioP1;P1;durP2;ratioP2;P2;SDS_P1;SDS_P2;PMS_P1;PMS_P2;Temp;Humidity;BMP_temperature;BMP_pressure;BME280_temperature;BME280_humidity;BME280_pressure;Samples;Min_cycle;Max_cycle;Signal;HPM_P1;HPM_P2
2023/09/19 00:00:46;;;;;;;6.03;2.28;;;;;;;17.81;100.00;99915.59;5052293;28;20661;-73
2023/09/19 00:03:15;;;;;;;5.95;2.65;;;;;;;17.78;100.00;99918.56;5046270;28;20088;-72
2023/09/19 00:05:44;;;;;;;7.72;2.55;;;;;;;17.78;100.00;99912.41;5049994;28;20113;-76
2023/09/19 00:08:13;;;;;;;5.65;2.42;;;;;;;17.74;100.00;99911.03;5065749;28;20403;-76
2023/09/19 00:10:43;;;;;;;4.60;2.35;;;;;;;17.74;100.00;99908.38;5063644;28;20334;-75
2023/09/19 00:13:14;;;;;;;5.45;2.58;;;;;;;17.71;100.00;99915.66;5049698;28;20500;-77
2023/09/19 00:15:50;;;;;;;6.20;2.10;;;;;;;17.66;100.00;99917.94;5066073;28;20040;-77
2023/09/19 00:18:23;;;;;;;3.83;2.35;;;;;;;17.65;100.00;99907.44;5051276;28;20048;-78
2023/09/19 00:20:51;;;;;;;6.53;3.03;;;;;;;17.61;100.00;99914.09;5069390;28;20131;-76
2023/09/19 00:23:19;;;;;;;7.43;2.50;;;;;;;17.60;100.00;99901.75;5062878;28;20048;-78
2023/09/19 00:25:48;;;;;;;5.88;2.60;;;;;;;17.57;100.00;99904.72;5050256;28;20080;-74
2023/09/19 00:28:16;;;;;;;10.25;3.42;;;;;;;17.55;100.00;99898.69;5068550;28;20048;-77
2023/09/19 00:30:45;;;;;;;4.75;2.50;;;;;;;17.57;100.00;99907.38;5053725;28;20506;-77
2023/09/19 00:33:16;;;;;;;6.50;2.63;;;;;;;17.54;100.00;99905.84;5053429;28;20138;-76
2023/09/19 00:35:52;;;;;;;9.60;3.22;;;;;;;17.51;100.00;99900.81;5051642;28;20056;-78
2023/09/19 00:38:26;;;;;;;6.57;2.47;;;;;;;17.47;100.00;99896.78;5080960;28;20064;-77
2023/09/19 00:40:56;;;;;;;7.72;2.72;;;;;;;17.45;100.00;99909.44;5070445;28;20052;-78
2023/09/19 00:43:27;;;;;;;8.95;3.25;;;;;;;17.46;100.00;99909.28;5070289;28;20102;-78
2023/09/19 00:45:57;;;;;;;11.15;3.47;;;;;;;17.46;100.00;99909.28;5069773;28;20066;-77
2023/09/19 00:48:27;;;;;;;4.18;2.08;;;;;;;17.48;100.00;99906.47;5063348;28;20056;-80
2023/09/19 00:50:55;;;;;;;3.97;2.35;;;;;;;17.48;100.00;99908.31;5070672;28;20075;-74
2023/09/19 00:53:25;;;;;;;5.65;2.83;;;;;;;17.47;100.00;99910.09;5067446;28;20055;-73
2023/09/19 00:55:52;;;;;;;4.57;2.20;;;;;;;17.43;100.00;99914.09;5069862;28;20498;-76
2023/09/19 00:58:20;;;;;;;5.82;2.30;;;;;;;17.42;100.00;99912.38;5053600;28;20101;-74
2023/09/19 01:00:48;;;;;;;4.30;2.60;;;;;;;17.39;100.00;99910.88;5053562;28;20036;-75
2023/09/19 01:03:15;;;;;;;11.35;2.75;;;;;;;17.37;100.00;99910.19;5065840;28;20051;-74
2023/09/19 01:05:43;;;;;;;6.03;2.33;;;;;;;17.39;100.00;99916.19;5035301;28;20519;-76
2023/09/19 01:08:11;;;;;;;6.57;2.28;;;;;;;17.38;100.00;99911.00;5064672;28;20055;-73
2023/09/19 01:11:08;;;;;;;4.88;2.60;;;;;;;17.35;100.00;99908.69;5035539;28;20598;-75
2023/09/19 01:13:53;;;;;;;10.07;2.50;;;;;;;17.35;100.00;99890.88;5058271;28;20047;-75
2023/09/19 01:16:45;;;;;;;6.97;2.40;;;;;;;17.39;100.00;99907.38;5067786;28;20043;-74
2023/09/19 01:19:32;;;;;;;7.63;2.30;;;;;;;17.33;100.00;99914.13;5062760;28;20048;-74
2023/09/19 01:22:22;;;;;;;6.00;2.70;;;;;;;17.30;100.00;99908.28;5046124;28;20105;-76
2023/09/19 01:25:17;;;;;;;6.25;2.47;;;;;;;17.23;100.00;99913.38;5047411;28;20129;-75
2023/09/19 01:28:03;;;;;;;9.38;3.65;;;;;;;17.25;100.00;99907.91;5086631;28;20036;-77
2023/09/19 01:30:33;;;;;;;4.80;2.55;;;;;;;17.25;100.00;99910.56;5051696;28;20040;-76
2023/09/19 01:33:01;;;;;;;8.93;3.08;;;;;;;17.27;100.00;99908.59;5069696;28;20097;-77
2023/09/19 01:35:29;;;;;;;8.82;2.42;;;;;;;17.31;100.00;99913.44;5046420;28;20052;-76
2023/09/19 01:37:56;;;;;;;7.45;2.47;;;;;;;17.33;100.00;99913.28;5035683;28;20064;-75
2023/09/19 01:40:24;;;;;;;7.45;2.45;;;;;;;17.32;100.00;99904.47;5050122;28;20052;-75
2023/09/19 01:43:04;;;;;;;8.02;2.63;;;;;;;17.36;100.00;99910.34;5052006;28;20056;-76
2023/09/19 01:45:56;;;;;;;5.53;2.35;;;;;;;17.33;100.00;99911.47;5053703;28;20052;-75
2023/09/19 01:48:40;;;;;;;5.20;2.20;;;;;;;17.35;100.00;99917.50;5085997;28;20139;-76
2023/09/19 01:51:10;;;;;;;5.18;2.30;;;;;;;17.34;100.00;99918.47;5088875;28;20044;-76
2023/09/19 01:53:41;;;;;;;8.73;2.58;;;;;;;17.30;100.00;99917.09;5070082;28;20437;-75
2023/09/19 01:56:13;;;;;;;8.85;2.15;;;;;;;17.27;100.00;99913.91;5072188;28;20439;-74
2023/09/19 01:58:45;;;;;;;8.98;2.25;;;;;;;17.23;100.00;99904.56;5038619;28;20479;-74
2023/09/19 02:01:17;;;;;;;7.40;2.28;;;;;;;17.17;100.00;99913.97;5071597;28;20097;-72
2023/09/19 02:03:47;;;;;;;8.93;2.45;;;;;;;17.14;100.00;99915.09;5051733;28;20067;-75
2023/09/19 02:06:17;;;;;;;5.20;2.40;;;;;;;17.09;100.00;99917.38;5055843;28;20105;-74
2023/09/19 02:08:45;;;;;;;6.25;2.17;;;;;;;17.09;100.00;99916.53;5052047;28;20110;-75
2023/09/19 02:11:13;;;;;;;5.53;2.28;;;;;;;17.08;100.00;99923.69;5070846;28;20036;-77
2023/09/19 02:13:42;;;;;;;3.13;1.98;;;;;;;17.03;100.00;99925.97;5036985;28;20071;-78
2023/09/19 02:16:12;;;;;;;5.35;2.40;;;;;;;17.01;100.00;99925.25;5056861;28;20131;-76
2023/09/19 02:18:43;;;;;;;6.60;2.28;;;;;;;16.99;100.00;99929.06;5057994;28;20140;-76
2023/09/19 02:21:12;;;;;;;7.07;2.22;;;;;;;16.96;100.00;99933.69;5070289;28;20102;-74
2023/09/19 02:23:42;;;;;;;5.32;2.53;;;;;;;16.96;100.00;99939.00;5071355;28;20071;-79
2023/09/19 02:26:09;;;;;;;3.78;2.30;;;;;;;16.97;100.00;99945.16;5036535;28;20048;-78
2023/09/19 02:28:36;;;;;;;6.43;2.28;;;;;;;16.96;100.00;99935.50;5060765;28;20044;-80
2023/09/19 02:31:05;;;;;;;4.65;2.40;;;;;;;16.98;100.00;99938.03;5038460;28;20449;-79
2023/09/19 02:33:33;;;;;;;4.90;2.25;;;;;;;16.93;100.00;99941.09;5055471;28;20406;-74
2023/09/19 02:36:00;;;;;;;7.88;2.15;;;;;;;16.90;100.00;99950.22;5068035;28;20106;-74
2023/09/19 02:38:28;;;;;;;4.32;2.38;;;;;;;16.91;100.00;99948.41;5039003;28;20084;-73
2023/09/19 02:40:56;;;;;;;4.63;2.67;;;;;;;16.93;100.00;99946.44;5052046;28;20117;-79
2023/09/19 02:43:24;;;;;;;8.13;2.65;;;;;;;16.89;100.00;99950.41;5071236;28;20449;-76
2023/09/19 02:45:56;;;;;;;6.88;2.50;;;;;;;16.87;100.00;99950.53;5038634;28;20040;-76
2023/09/19 02:48:25;;;;;;;4.82;2.60;;;;;;;16.84;100.00;99955.28;5041215;28;20093;-76
2023/09/19 02:50:52;;;;;;;8.25;2.55;;;;;;;16.87;100.00;99955.84;5050955;28;20044;-78
2023/09/19 02:53:24;;;;;;;7.95;2.38;;;;;;;16.85;100.00;99957.81;5038835;28;20040;-77
2023/09/19 02:55:54;;;;;;;3.63;2.17;;;;;;;16.85;100.00;99963.13;5035342;28;20097;-78
2023/09/19 02:58:24;;;;;;;7.75;2.72;;;;;;;16.82;100.00;99965.25;5060967;28;20055;-76
2023/09/19 03:00:55;;;;;;;5.30;2.47;;;;;;;16.79;100.00;99961.03;5070120;28;20745;-77
2023/09/19 03:03:25;;;;;;;5.13;2.20;;;;;;;16.76;100.00;99969.34;5039470;28;20046;-78
2023/09/19 03:05:53;;;;;;;5.43;2.30;;;;;;;16.78;100.00;99966.50;5069023;28;20121;-77
2023/09/19 03:08:22;;;;;;;7.00;2.65;;;;;;;16.80;100.00;99972.53;5055386;28;20459;-78
2023/09/19 03:10:50;;;;;;;4.25;1.75;;;;;;;16.79;100.00;99978.81;5068421;28;20510;-77
2023/09/19 03:13:17;;;;;;;5.97;2.70;;;;;;;16.75;100.00;99977.44;5071263;28;20445;-78
2023/09/19 03:15:50;;;;;;;3.55;1.95;;;;;;;16.77;100.00;99970.16;5067858;28;20063;-78
2023/09/19 03:18:18;;;;;;;5.95;2.33;;;;;;;16.78;100.00;99977.16;5071738;28;20127;-78
2023/09/19 03:20:59;;;;;;;5.03;2.20;;;;;;;16.81;100.00;99974.22;5047153;28;20056;-75
2023/09/19 03:23:28;;;;;;;3.72;2.00;;;;;;;16.81;100.00;99974.22;5072172;28;20075;-77
2023/09/19 03:25:57;;;;;;;4.75;2.38;;;;;;;16.82;100.00;99975.88;5068771;28;20066;-78
2023/09/19 03:28:28;;;;;;;5.60;1.67;;;;;;;16.83;100.00;99982.88;5071983;28;20097;-77
2023/09/19 03:31:05;;;;;;;3.35;2.03;;;;;;;16.89;100.00;99987.63;5054012;28;20556;-76
2023/09/19 03:33:34;;;;;;;8.25;1.85;;;;;;;16.89;100.00;99995.59;5067764;28;20052;-74
2023/09/19 03:36:04;;;;;;;4.15;2.00;;;;;;;16.90;100.00;99987.47;5063815;28;20048;-77
2023/09/19 03:38:35;;;;;;;4.65;2.00;;;;;;;16.90;100.00;99994.59;5071145;28;20036;-78
2023/09/19 03:41:04;;;;;;;6.65;1.63;;;;;;;16.89;100.00;99988.44;5051877;28;20406;-78
2023/09/19 03:43:33;;;;;;;6.40;2.25;;;;;;;16.92;100.00;99997.94;5044041;28;20044;-77
2023/09/19 03:46:03;;;;;;;5.07;1.92;;;;;;;16.97;100.00;99998.31;5069341;28;20116;-77
2023/09/19 03:48:32;;;;;;;4.80;1.63;;;;;;;16.97;100.00;100003.66;5031942;28;20102;-77
2023/09/19 03:50:59;;;;;;;3.80;1.90;;;;;;;16.98;100.00;100009.81;5045666;28;20055;-78
2023/09/19 03:53:26;;;;;;;4.88;1.73;;;;;;;16.97;100.00;100003.66;5054016;28;20601;-76
2023/09/19 03:55:55;;;;;;;2.08;1.58;;;;;;;16.98;100.00;100009.81;5033196;28;20106;-75
2023/09/19 03:58:22;;;;;;;5.07;2.00;;;;;;;16.96;100.00;100012.63;5035284;28;20075;-76
2023/09/19 04:00:50;;;;;;;3.70;1.67;;;;;;;16.92;100.00;100012.06;5088109;28;20048;-84
2023/09/19 04:03:20;;;;;;;3.55;1.40;;;;;;;16.89;100.00;100020.34;5054229;28;20040;-74
2023/09/19 04:05:48;;;;;;;3.67;1.60;;;;;;;16.92;100.00;100011.22;5081149;28;20087;-74
2023/09/19 04:08:17;;;;;;;3.25;1.20;;;;;;;16.89;100.00;100006.22;5066882;28;20059;-73
2023/09/19 04:10:45;;;;;;;7.28;1.90;;;;;;;16.88;100.00;100023.13;5065304;28;20072;-74
2023/09/19 04:13:13;;;;;;;2.65;1.48;;;;;;;16.87;100.00;100019.63;5034577;28;20051;-73
2023/09/19 04:15:41;;;;;;;3.67;1.50;;;;;;;16.84;100.00;100013.78;5050127;28;20548;-72
2023/09/19 04:18:08;;;;;;;3.90;1.67;;;;;;;16.83;99.61;100012.09;5070665;28;20461;-74
2023/09/19 04:20:36;;;;;;;5.18;2.08;;;;;;;16.80;99.18;100023.03;5047816;28;20047;-73
2023/09/19 04:23:05;;;;;;;3.28;1.40;;;;;;;16.78;98.61;100023.16;5029400;28;20048;-72
2023/09/19 04:25:33;;;;;;;2.70;1.35;;;;;;;16.75;98.23;100017.31;5059242;28;20583;-72
2023/09/19 04:28:00;;;;;;;2.70;1.58;;;;;;;16.74;97.89;100028.91;5048898;28;20070;-71
2023/09/19 04:30:28;;;;;;;4.25;1.48;;;;;;;16.69;97.64;100030.16;5049772;28;20043;-71
2023/09/19 04:32:55;;;;;;;7.18;2.13;;;;;;;16.65;97.07;100026.09;5064618;28;20177;-74
2023/09/19 04:35:23;;;;;;;5.78;1.67;;;;;;;16.61;96.87;100035.34;5051824;28;20139;-72
2023/09/19 04:37:50;;;;;;;2.72;1.15;;;;;;;16.63;96.57;100036.06;5065724;28;20806;-73
2023/09/19 04:40:19;;;;;;;6.15;1.60;;;;;;;16.59;96.90;100050.63;5050455;28;20060;-76
2023/09/19 04:42:56;;;;;;;3.65;1.85;;;;;;;16.57;96.43;100054.38;5061287;28;20056;-75
2023/09/19 04:45:24;;;;;;;4.53;1.92;;;;;;;16.55;96.75;100048.38;5053339;28;20075;-71
2023/09/19 04:47:52;;;;;;;6.03;1.90;;;;;;;16.49;96.69;100055.13;5044830;28;20056;-73
2023/09/19 04:50:20;;;;;;;3.50;1.70;;;;;;;16.45;96.76;100057.22;5053012;28;20131;-73
2023/09/19 04:52:51;;;;;;;4.38;1.50;;;;;;;16.47;96.76;100057.06;5049841;28;20048;-73
2023/09/19 04:55:19;;;;;;;3.65;1.60;;;;;;;16.44;96.74;100052.06;5051801;28;20113;-75
2023/09/19 04:57:48;;;;;;;5.63;1.58;;;;;;;16.42;97.11;100064.63;5051281;28;20131;-74
2023/09/19 05:00:23;;;;;;;7.50;1.60;;;;;;;16.41;96.88;100060.28;5067800;28;20459;-72
2023/09/19 05:02:51;;;;;;;3.97;1.80;;;;;;;16.39;96.98;100060.44;5065384;28;20107;-73
2023/09/19 05:05:19;;;;;;;5.28;1.90;;;;;;;16.42;96.92;100068.09;5065785;28;20143;-74
2023/09/19 05:07:46;;;;;;;2.85;1.80;;;;;;;16.39;96.77;100062.22;5049296;28;20253;-73
2023/09/19 05:10:14;;;;;;;3.50;1.52;;;;;;;16.35;97.11;100067.00;5052889;28;20048;-73
2023/09/19 05:12:45;;;;;;;3.05;1.42;;;;;;;16.34;96.82;100072.44;5050377;28;20044;-72
2023/09/19 05:15:14;;;;;;;5.38;1.80;;;;;;;16.33;96.77;100073.44;5054700;28;20051;-73
2023/09/19 05:17:41;;;;;;;3.85;1.25;;;;;;;16.32;97.08;100077.06;5065382;28;20075;-73
2023/09/19 05:20:24;;;;;;;5.32;2.22;;;;;;;16.31;97.06;100078.06;5053342;28;20044;-74
2023/09/19 05:23:07;;;;;;;6.25;1.70;;;;;;;16.29;96.61;100086.16;5067328;28;20079;-74
2023/09/19 05:25:39;;;;;;;4.45;2.00;;;;;;;16.26;96.22;100089.09;5086135;28;20150;-74
2023/09/19 05:28:08;;;;;;;5.07;1.77;;;;;;;16.32;96.10;100095.66;5031208;28;20059;-74
2023/09/19 05:30:36;;;;;;;5.30;1.73;;;;;;;16.31;95.91;100096.66;5068896;28;20135;-73
2023/09/19 05:33:04;;;;;;;5.82;2.22;;;;;;;16.30;95.89;100106.44;5053120;28;20076;-72
2023/09/19 05:35:32;;;;;;;7.85;2.03;;;;;;;16.25;96.10;100100.69;5071858;28;20530;-74
2023/09/19 05:38:00;;;;;;;4.47;1.42;;;;;;;16.26;95.97;100102.38;5068466;28;20674;-75
2023/09/19 05:40:27;;;;;;;9.95;2.03;;;;;;;16.23;95.97;100117.75;5056369;28;20052;-72
2023/09/19 05:42:55;;;;;;;5.88;2.50;;;;;;;16.26;95.95;100109.53;5069412;28;20060;-73
2023/09/19 05:45:22;;;;;;;10.18;1.92;;;;;;;16.25;95.91;100121.09;5085136;28;20048;-73
2023/09/19 05:47:51;;;;;;;7.07;2.33;;;;;;;16.28;95.23;100126.16;5053180;28;20114;-74
2023/09/19 05:50:19;;;;;;;7.40;2.15;;;;;;;16.25;94.98;100127.25;5090323;28;20118;-73
2023/09/19 05:52:55;;;;;;;5.13;1.80;;;;;;;16.32;95.27;100132.84;5068819;28;20052;-74
2023/09/19 05:55:26;;;;;;;12.63;2.38;;;;;;;16.30;94.42;100140.13;5052447;28;20136;-75
2023/09/19 05:57:54;;;;;;;10.32;2.28;;;;;;;16.29;94.07;100135.78;5071427;28;20176;-74
2023/09/19 06:00:22;;;;;;;6.30;2.53;;;;;;;16.32;93.91;100136.34;5053957;28;20082;-73
2023/09/19 06:02:54;;;;;;;5.75;1.55;;;;;;;16.37;93.78;100147.41;5053057;28;20065;-73
2023/09/19 06:05:22;;;;;;;7.13;2.03;;;;;;;16.39;93.60;100147.25;5069835;28;20739;-73
2023/09/19 06:07:50;;;;;;;7.57;1.98;;;;;;;16.42;93.72;100154.94;5068885;28;20107;-75
2023/09/19 06:10:20;;;;;;;3.55;1.50;;;;;;;16.40;93.57;100162.22;5052014;28;20954;-74
2023/09/19 06:12:48;;;;;;;6.13;2.15;;;;;;;16.38;93.53;100162.34;5067021;28;20211;-74
2023/09/19 06:15:18;;;;;;;3.78;2.15;;;;;;;16.45;93.56;100165.31;5054876;28;20101;-71
2023/09/19 06:17:50;;;;;;;10.18;2.00;;;;;;;16.49;93.53;100176.50;5050148;28;20570;-74
2023/09/19 06:20:19;;;;;;;9.73;2.42;;;;;;;16.49;92.96;100173.84;5033757;28;20109;-74
2023/09/19 06:22:47;;;;;;;5.00;1.80;;;;;;;16.59;92.91;100174.69;5069047;28;20777;-74
2023/09/19 06:25:19;;;;;;;5.85;1.88;;;;;;;16.65;92.43;100177.59;5035516;28;20556;-74
2023/09/19 06:27:56;;;;;;;4.63;2.22;;;;;;;16.67;91.63;100182.78;5068704;28;20776;-74
2023/09/19 06:30:24;;;;;;;6.13;2.00;;;;;;;16.63;91.35;100181.38;5054876;28;20051;-74
2023/09/19 06:32:57;;;;;;;5.70;1.80;;;;;;;16.72;90.95;100177.94;5049038;28;20117;-75
2023/09/19 06:35:29;;;;;;;10.05;2.35;;;;;;;16.76;90.20;100179.31;5054542;28;20060;-73
2023/09/19 06:37:57;;;;;;;7.72;1.88;;;;;;;16.77;89.75;100194.28;5056134;28;20101;-73
2023/09/19 06:40:27;;;;;;;9.40;2.03;;;;;;;16.90;89.12;100189.53;5048835;28;20139;-76
2023/09/19 06:42:55;;;;;;;7.55;2.17;;;;;;;16.92;88.61;100197.34;5068053;28;20056;-72
2023/09/19 06:45:26;;;;;;;6.97;2.45;;;;;;;16.99;88.59;100198.47;5031184;28;20133;-74
2023/09/19 06:47:57;;;;;;;6.82;2.50;;;;;;;17.07;87.72;100195.94;5069256;28;20097;-73
2023/09/19 06:50:26;;;;;;;6.60;2.08;;;;;;;17.21;86.67;100206.13;5068182;28;20109;-73
2023/09/19 06:52:57;;;;;;;5.53;1.80;;;;;;;17.39;85.49;100192.09;5070554;28;20109;-73
2023/09/19 06:55:27;;;;;;;7.70;2.20;;;;;;;17.45;84.75;100199.47;5044269;28;20626;-74
2023/09/19 06:57:56;;;;;;;6.40;1.95;;;;;;;17.41;84.16;100208.72;5069384;28;20082;-74
2023/09/19 07:00:25;;;;;;;9.48;2.75;;;;;;;17.34;84.69;100220.94;5067160;28;20044;-72
2023/09/19 07:03:04;;;;;;;8.10;2.28;;;;;;;17.55;83.64;100207.44;5069102;28;20051;-74
2023/09/19 07:05:33;;;;;;;7.28;2.30;;;;;;;17.66;83.51;100205.44;5063198;28;20071;-75
2023/09/19 07:08:03;;;;;;;7.90;2.10;;;;;;;17.94;81.71;100206.31;5051375;28;20169;-73
2023/09/19 07:10:30;;;;;;;7.47;2.88;;;;;;;18.18;80.49;100211.06;5085168;28;20114;-74
2023/09/19 07:12:59;;;;;;;6.80;2.30;;;;;;;18.39;78.38;100208.16;5050589;28;20128;-75
2023/09/19 07:15:27;;;;;;;4.70;1.92;;;;;;;18.24;79.41;100228.31;5068335;28;20056;-75
2023/09/19 07:17:56;;;;;;;5.53;2.40;;;;;;;18.25;78.35;100218.50;5068150;28;20068;-74
2023/09/19 07:20:28;;;;;;;5.97;1.90;;;;;;;17.93;79.68;100231.28;5044126;28;20123;-72
2023/09/19 07:22:55;;;;;;;9.43;2.78;;;;;;;18.17;79.02;100217.41;5050232;28;20433;-73
2023/09/19 07:25:23;;;;;;;6.30;2.15;;;;;;;18.22;78.47;100248.94;5062622;28;20632;-71
2023/09/19 07:27:51;;;;;;;9.85;2.35;;;;;;;18.17;76.70;100224.56;5080858;28;20087;-73
2023/09/19 07:30:18;;;;;;;7.88;1.92;;;;;;;18.17;76.81;100230.72;5068054;28;20044;-73
2023/09/19 07:32:45;;;;;;;9.13;1.85;;;;;;;18.30;76.73;100238.38;5048386;28;20459;-74
2023/09/19 07:35:13;;;;;;;6.63;2.05;;;;;;;18.34;76.99;100236.25;5032082;28;20052;-74
2023/09/19 07:37:40;;;;;;;4.93;2.15;;;;;;;18.06;76.84;100243.41;5049656;28;20097;-75
2023/09/19 07:40:09;;;;;;;6.18;2.38;;;;;;;18.02;75.56;100247.38;5068914;28;20101;-72
2023/09/19 07:42:40;;;;;;;5.20;2.40;;;;;;;18.27;75.87;100245.81;5064294;28;20056;-72
2023/09/19 07:45:09;;;;;;;11.13;2.97;;;;;;;18.10;76.46;100247.44;5049904;28;20059;-72
2023/09/19 07:47:36;;;;;;;6.80;1.98;;;;;;;18.30;76.57;100238.38;5063677;28;20040;-73
2023/09/19 07:50:04;;;;;;;7.50;2.55;;;;;;;18.59;75.07;100250.66;5048944;28;20076;-73
2023/09/19 07:52:33;;;;;;;5.65;2.17;;;;;;;18.70;72.99;100275.31;5066746;28;20745;-73
2023/09/19 07:55:06;;;;;;;7.18;2.33;;;;;;;18.29;72.89;100267.84;5069332;28;20047;-73
2023/09/19 07:57:34;;;;;;;3.85;2.13;;;;;;;18.61;72.10;100278.84;5034979;28;20138;-74
2023/09/19 08:00:04;;;;;;;8.32;2.22;;;;;;;18.69;71.52;100284.31;5037273;28;20044;-73
2023/09/19 08:02:38;;;;;;;7.07;2.38;;;;;;;18.92;70.08;100281.19;5064359;28;20080;-72
2023/09/19 08:05:06;;;;;;;10.30;2.35;;;;;;;18.82;66.88;100275.06;5047681;28;20068;-72
2023/09/19 08:07:36;;;;;;;7.13;2.75;;;;;;;18.69;67.49;100286.13;5048169;28;20056;-74
2023/09/19 08:10:04;;;;;;;8.82;2.42;;;;;;;18.70;67.96;100279.81;5063403;28;20075;-74
2023/09/19 08:12:32;;;;;;;5.88;2.67;;;;;;;18.56;69.29;100280.31;5063612;28;20060;-74
2023/09/19 08:14:59;;;;;;;5.75;3.00;;;;;;;18.41;68.79;100270.13;5067199;28;20036;-73
2023/09/19 08:17:27;;;;;;;12.80;2.60;;;;;;;18.72;68.62;100262.66;5067685;28;20557;-73
2023/09/19 08:19:58;;;;;;;16.85;2.90;;;;;;;18.55;68.64;100276.81;5065009;28;20117;-73
2023/09/19 08:22:27;;;;;;;7.78;2.22;;;;;;;18.28;68.83;100284.78;5062394;28;20085;-73
2023/09/19 08:24:56;;;;;;;10.60;2.63;;;;;;;18.19;69.16;100284.72;5083624;28;20048;-73
2023/09/19 08:27:26;;;;;;;4.85;1.90;;;;;;;18.05;68.90;100282.50;5065323;28;20444;-72
2023/09/19 08:29:54;;;;;;;7.10;2.10;;;;;;;18.00;68.08;100278.63;5030569;28;20071;-73
2023/09/19 08:32:24;;;;;;;7.47;2.30;;;;;;;17.96;68.24;100278.06;5066404;28;20611;-73
2023/09/19 08:34:51;;;;;;;7.10;2.08;;;;;;;17.88;68.95;100283.31;5047815;28;20082;-73
2023/09/19 08:37:19;;;;;;;10.40;2.50;;;;;;;17.80;70.35;100277.88;5081301;28;20076;-72
2023/09/19 08:39:46;;;;;;;6.93;2.25;;;;;;;17.70;70.92;100285.84;5065746;28;20143;-72
2023/09/19 08:42:16;;;;;;;11.73;2.33;;;;;;;17.89;70.54;100299.13;5047752;28;20068;-74
2023/09/19 08:44:43;;;;;;;6.78;2.25;;;;;;;18.09;69.56;100289.22;5083786;28;20522;-73
2023/09/19 08:47:15;;;;;;;10.45;2.42;;;;;;;18.14;68.89;100297.63;5043182;28;20143;-74
2023/09/19 08:49:51;;;;;;;11.77;3.22;;;;;;;18.10;68.43;100301.59;5067884;28;20463;-74
2023/09/19 08:52:26;;;;;;;9.25;2.95;;;;;;;17.83;69.26;100305.03;5050660;28;20075;-73
2023/09/19 08:54:57;;;;;;;9.00;1.97;;;;;;;18.11;68.38;100302.41;5066514;28;20076;-72
2023/09/19 08:57:25;;;;;;;5.18;1.98;;;;;;;18.06;68.91;100316.19;5045796;28;20558;-74
2023/09/19 08:59:54;;;;;;;6.25;2.50;;;;;;;17.95;68.47;100311.84;5066158;28;20064;-75
2023/09/19 09:02:25;;;;;;;6.85;2.65;;;;;;;18.22;66.48;100324.38;5079794;28;20044;-74
2023/09/19 09:04:53;;;;;;;7.03;2.60;;;;;;;18.29;66.57;100308.66;5049092;28;20044;-74
2023/09/19 09:07:21;;;;;;;11.23;3.47;;;;;;;18.23;66.14;100314.53;5046167;28;20139;-74
2023/09/19 09:09:49;;;;;;;9.52;2.42;;;;;;;18.25;67.03;100320.59;5047933;28;20052;-72
2023/09/19 09:12:16;;;;;;;10.85;2.40;;;;;;;18.11;66.32;100318.41;5061744;28;20133;-75
2023/09/19 09:14:49;;;;;;;6.75;2.83;;;;;;;18.22;65.35;100326.19;5050603;28;20526;-77
2023/09/19 09:17:20;;;;;;;6.93;2.55;;;;;;;18.40;65.18;100326.25;5049506;28;20064;-78
2023/09/19 09:19:48;;;;;;;8.93;2.78;;;;;;;18.37;65.27;100321.22;5034583;28;20064;-78
2023/09/19 09:22:16;;;;;;;6.45;2.75;;;;;;;18.65;65.03;100325.56;5043981;28;20091;-77
2023/09/19 09:24:57;;;;;;;7.30;2.17;;;;;;;19.14;63.43;100326.09;5079853;28;20468;-77
2023/09/19 09:27:24;;;;;;;16.90;3.10;;;;;;;18.93;62.35;100336.22;5061347;28;20146;-77
2023/09/19 09:29:54;;;;;;;7.88;2.70;;;;;;;19.04;61.42;100346.66;5048455;28;20074;-77
2023/09/19 09:32:28;;;;;;;7.53;2.67;;;;;;;18.96;62.48;100326.09;5048222;28;20767;-77
2023/09/19 09:34:58;;;;;;;15.05;3.88;;;;;;;18.64;62.60;100328.34;5046550;28;20564;-77
2023/09/19 09:37:30;;;;;;;9.05;2.22;;;;;;;18.76;62.36;100329.03;5062900;28;20052;-77
2023/09/19 09:40:19;;;;;;;8.82;2.70;;;;;;;18.96;61.03;100326.09;5048725;28;20066;-77
2023/09/19 09:42:46;;;;;;;8.02;2.97;;;;;;;19.08;61.17;100332.00;5049444;28;20432;-77
2023/09/19 09:45:15;;;;;;;6.47;2.97;;;;;;;18.99;60.31;100324.94;5050091;28;20059;-78
2023/09/19 09:47:55;;;;;;;16.90;3.70;;;;;;;18.66;61.67;100337.91;5084250;28;20475;-77
2023/09/19 09:50:39;;;;;;;7.40;3.10;;;;;;;18.46;61.38;100325.66;5067511;28;20429;-78
2023/09/19 09:53:25;;;;;;;9.18;3.00;;;;;;;18.38;60.97;100353.06;5055382;28;20041;-79
2023/09/19 09:56:07;;;;;;;14.18;3.45;;;;;;;18.55;60.73;100350.56;5034739;28;20171;-78
2023/09/19 09:58:36;;;;;;;10.80;3.53;;;;;;;18.73;59.17;100338.16;5064661;28;20105;-78
2023/09/19 10:01:14;;;;;;;7.90;3.13;;;;;;;18.87;58.25;100331.50;5078753;28;20054;-76
2023/09/19 10:03:49;;;;;;;10.60;3.13;;;;;;;19.22;56.76;100339.47;5064164;28;20106;-77
2023/09/19 10:11:39;;;;;;;13.63;2.85;;;;;;;19.64;53.17;100351.38;5053076;28;20139;-77
2023/09/19 10:14:09;;;;;;;12.48;2.90;;;;;;;19.75;52.83;100336.94;5057722;28;20141;-79
2023/09/19 10:16:40;;;;;;;13.43;4.05;;;;;;;19.44;53.29;100356.84;5059965;28;20064;-77
2023/09/19 10:19:11;;;;;;;7.30;3.05;;;;;;;19.17;54.06;100351.59;5081774;28;20098;-78
2023/09/19 10:21:39;;;;;;;12.75;3.42;;;;;;;19.75;53.25;100347.63;5051302;28;20098;-77
2023/09/19 10:24:08;;;;;;;8.93;3.78;;;;;;;20.00;52.74;100364.66;5068617;28;21013;-82
2023/09/19 10:26:36;;;;;;;8.88;3.15;;;;;;;19.63;50.06;100334.53;5052269;28;20071;-85
2023/09/19 10:29:07;;;;;;;7.25;2.80;;;;;;;20.01;49.60;100336.94;5068139;28;20068;-81
2023/09/19 10:31:36;;;;;;;8.65;2.70;;;;;;;20.15;49.46;100341.69;5052897;28;20036;-79
2023/09/19 10:34:04;;;;;;;7.30;2.72;;;;;;;20.70;49.32;100339.41;5055579;28;20597;-79
2023/09/19 10:36:35;;;;;;;6.07;3.00;;;;;;;21.17;49.01;100330.84;5051519;28;20095;-78
2023/09/19 10:39:08;;;;;;;10.25;2.75;;;;;;;21.44;47.83;100337.72;5069505;28;20534;-78
2023/09/19 10:41:37;;;;;;;5.28;2.42;;;;;;;21.41;46.78;100337.22;5068650;28;20098;-76
2023/09/19 10:44:09;;;;;;;16.17;4.18;;;;;;;21.60;46.37;100326.16;5039124;28;20151;-82
2023/09/19 10:46:38;;;;;;;7.93;3.30;;;;;;;21.02;45.97;100337.81;5070049;28;20048;-77
2023/09/19 10:49:06;;;;;;;10.40;2.70;;;;;;;21.52;44.30;100336.03;5069564;28;20171;-77
2023/09/19 10:51:40;;;;;;;16.63;3.25;;;;;;;21.72;44.69;100332.84;5052824;28;20529;-76
2023/09/19 10:54:13;;;;;;;8.98;3.28;;;;;;;21.84;43.84;100335.16;5070528;28;20438;-76
2023/09/19 10:56:51;;;;;;;6.18;2.50;;;;;;;21.83;43.10;100345.03;5049953;28;20052;-77
2023/09/19 10:59:20;;;;;;;10.80;3.40;;;;;;;21.95;42.62;100335.66;5082476;28;20048;-78
2023/09/19 11:01:56;;;;;;;6.10;3.05;;;;;;;21.89;42.99;100347.06;5053035;28;20541;-78
2023/09/19 11:04:30;;;;;;;9.77;2.95;;;;;;;22.23;40.99;100341.47;5050549;28;20075;-77
2023/09/19 11:07:11;;;;;;;9.88;3.08;;;;;;;21.73;42.79;100353.28;5047575;28;20048;-77
2023/09/19 11:10:01;;;;;;;8.32;3.55;;;;;;;21.12;42.34;100348.38;5069369;28;20514;-77
2023/09/19 11:12:32;;;;;;;11.82;3.08;;;;;;;21.41;43.20;100346.09;5042881;28;20129;-76
2023/09/19 11:14:59;;;;;;;8.35;2.38;;;;;;;21.62;42.41;100337.56;5083014;28;20132;-78
2023/09/19 11:17:46;;;;;;;15.18;3.17;;;;;;;21.92;41.88;100337.81;5069509;28;20064;-77
2023/09/19 11:20:24;;;;;;;6.38;2.75;;;;;;;22.16;41.77;100339.66;5049842;28;20589;-77
2023/09/19 11:22:52;;;;;;;6.97;2.72;;;;;;;22.54;41.60;100350.56;5052641;28;20076;-76
2023/09/19 11:25:47;;;;;;;8.02;2.58;;;;;;;22.08;42.18;100345.84;5065233;28;20102;-77
2023/09/19 11:28:18;;;;;;;17.70;4.30;;;;;;;22.61;42.12;100356.91;5042251;28;20060;-80
2023/09/19 11:30:48;;;;;;;7.85;2.72;;;;;;;23.23;40.62;100356.88;5083598;28;20125;-77
2023/09/19 11:36:16;;;;;;;5.18;2.53;;;;;;;22.63;40.40;100346.84;5062872;28;20045;-76
2023/09/19 11:38:49;;;;;;;8.27;2.20;;;;;;;22.35;40.36;100357.19;5053283;28;20087;-78
2023/09/19 11:41:20;;;;;;;6.00;2.58;;;;;;;22.54;40.09;100351.41;5069845;28;20056;-75
2023/09/19 11:43:50;;;;;;;14.23;3.50;;;;;;;22.20;39.65;100349.88;5065161;28;20047;-78
2023/09/19 11:46:21;;;;;;;11.73;2.75;;;;;;;22.11;40.38;100355.38;5048040;28;20044;-76
2023/09/19 11:48:49;;;;;;;12.45;3.13;;;;;;;22.59;40.14;100351.72;5049072;28;20075;-77